sensor_id;sensor_type;location;lat;lon;timestamp;pressure;altitude;pressure_sealevel;temperature;humidity
59767;BME280;46248;58.364;25.582;2023-04-01T00:00:34;99334.50;;;-0.52;100.00
59767;BME280;46248;58.364;25.582;2023-04-01T00:03:56;99299.03;;;-0.72;100.00
59767;BME280;46248;58.364;25.582;2023-04-01T00:07:19;99331.94;;;-0.52;100.00
59767;BME280;46248;58.364;25.582;2023-04-01T00:10:41;99335.31;;;-0.50;100.00
59767;BME280;46248;58.364;25.582;2023-04-01T00:14:03;99343.06;;;-0.52;100.00
59767;BME280;46248;58.364;25.582;2023-04-01T00:17:25;99343.06;;;-0.52;100.00
59767;BME280;46248;58.364;25.582;2023-04-01T00:20:48;99332.00;;;-0.54;100.00
59767;BME280;46248;58.364;25.582;2023-04-01T00:24:12;99340.50;;;-0.52;100.00
59767;BME280;46248;58.364;25.582;2023-04-01T00:27:34;99339.72;;;-0.54;100.00
59767;BME280;46248;58.364;25.582;2023-04-01T00:30:56;99336.28;;;-0.54;100.00
59767;BME280;46248;58.364;25.582;2023-04-01T00:34:18;99326.78;;;-0.52;100.00
59767;BME280;46248;58.364;25.582;2023-04-01T00:37:40;99338.72;;;-0.50;100.00
59767;BME280;46248;58.364;25.582;2023-04-01T00:41:04;99316.50;;;-0.51;100.00
59767;BME280;46248;58.364;25.582;2023-04-01T00:44:28;99326.84;;;-0.54;100.00
59767;BME280;46248;58.364;25.582;2023-04-01T00:47:50;99326.00;;;-0.54;100.00
59767;BME280;46248;58.364;25.582;2023-04-01T00:51:15;99328.44;;;-0.50;100.00
59767;BME280;46248;58.364;25.582;2023-04-01T00:54:40;99333.56;;;-0.48;100.00
59767;BME280;46248;58.364;25.582;2023-04-01T00:58:07;99332.69;;;-0.49;100.00
59767;BME280;46248;58.364;25.582;2023-04-01T01:01:32;99338.88;;;-0.54;100.00
59767;BME280;46248;58.364;25.582;2023-04-01T01:04:54;99334.59;;;-0.55;100.00
59767;BME280;46248;58.364;25.582;2023-04-01T01:08:25;99328.53;;;-0.53;100.00
59767;BME280;46248;58.364;25.582;2023-04-01T01:11:54;99332.75;;;-0.50;100.00
59767;BME280;46248;58.364;25.582;2023-04-01T01:15:24;99317.47;;;-0.56;100.00
59767;BME280;46248;58.364;25.582;2023-04-01T01:18:50;99331.06;;;-0.51;100.00
59767;BME280;46248;58.364;25.582;2023-04-01T01:22:39;99329.38;;;-0.52;100.00
59767;BME280;46248;58.364;25.582;2023-04-01T01:26:31;99335.34;;;-0.52;100.00
59767;BME280;46248;58.364;25.582;2023-04-01T01:30:18;99326.00;;;-0.54;100.00
59767;BME280;46248;58.364;25.582;2023-04-01T01:33:51;99342.19;;;-0.51;100.00
59767;BME280;46248;58.364;25.582;2023-04-01T01:37:17;99327.00;;;-0.60;100.00
59767;BME280;46248;58.364;25.582;2023-04-01T01:40:44;99330.28;;;-0.55;100.00
59767;BME280;46248;58.364;25.582;2023-04-01T01:44:08;99333.72;;;-0.54;100.00
59767;BME280;46248;58.364;25.582;2023-04-01T01:47:32;99321.78;;;-0.57;100.00
59767;BME280;46248;58.364;25.582;2023-04-01T01:50:56;99318.44;;;-0.60;100.00
59767;BME280;46248;58.364;25.582;2023-04-01T01:54:19;99328.59;;;-0.56;100.00
59767;BME280;46248;58.364;25.582;2023-04-01T01:57:44;99332.06;;;-0.57;100.00
59767;BME280;46248;58.364;25.582;2023-04-01T02:01:08;99329.50;;;-0.57;100.00
59767;BME280;46248;58.364;25.582;2023-04-01T02:04:34;99340.66;;;-0.58;100.00
59767;BME280;46248;58.364;25.582;2023-04-01T02:08:01;99331.31;;;-0.60;100.00
59767;BME280;46248;58.364;25.582;2023-04-01T02:11:28;99339.84;;;-0.60;100.00
59767;BME280;46248;58.364;25.582;2023-04-01T02:14:54;99341.50;;;-0.57;100.00
59767;BME280;46248;58.364;25.582;2023-04-01T02:18:18;99345.00;;;-0.60;100.00
59767;BME280;46248;58.364;25.582;2023-04-01T02:21:42;99345.88;;;-0.61;100.00
59767;BME280;46248;58.364;25.582;2023-04-01T02:25:09;99339.88;;;-0.61;100.00
59767;BME280;46248;58.364;25.582;2023-04-01T02:28:34;99348.44;;;-0.61;100.00
59767;BME280;46248;58.364;25.582;2023-04-01T02:32:00;99331.38;;;-0.63;100.00
59767;BME280;46248;58.364;25.582;2023-04-01T02:35:22;99343.41;;;-0.65;100.00
59767;BME280;46248;58.364;25.582;2023-04-01T02:38:45;99330.78;;;-0.75;100.00
59767;BME280;46248;58.364;25.582;2023-04-01T02:42:08;99344.19;;;-0.62;100.00
59767;BME280;46248;58.364;25.582;2023-04-01T02:45:32;99356.19;;;-0.62;100.00
59767;BME280;46248;58.364;25.582;2023-04-01T02:48:54;99353.66;;;-0.64;100.00
59767;BME280;46248;58.364;25.582;2023-04-01T02:52:16;99351.22;;;-0.68;100.00
59767;BME280;46248;58.364;25.582;2023-04-01T02:55:37;99358.00;;;-0.66;100.00
59767;BME280;46248;58.364;25.582;2023-04-01T02:58:59;99361.50;;;-0.70;100.00
59767;BME280;46248;58.364;25.582;2023-04-01T03:02:23;99332.84;;;-0.89;100.00
59767;BME280;46248;58.364;25.582;2023-04-01T03:05:45;99359.81;;;-0.70;100.00
59767;BME280;46248;58.364;25.582;2023-04-01T03:09:06;99356.44;;;-0.73;100.00
59767;BME280;46248;58.364;25.582;2023-04-01T03:12:28;99361.59;;;-0.73;100.00
59767;BME280;46248;58.364;25.582;2023-04-01T03:15:50;99359.84;;;-0.71;100.00
59767;BME280;46248;58.364;25.582;2023-04-01T03:19:14;99364.16;;;-0.73;100.00
59767;BME280;46248;58.364;25.582;2023-04-01T03:22:36;99371.94;;;-0.76;100.00
59767;BME280;46248;58.364;25.582;2023-04-01T03:26:02;99372.78;;;-0.76;100.00
59767;BME280;46248;58.364;25.582;2023-04-01T03:29:23;99378.78;;;-0.75;100.00
59767;BME280;46248;58.364;25.582;2023-04-01T03:32:45;99379.78;;;-0.81;100.00
59767;BME280;46248;58.364;25.582;2023-04-01T03:36:09;99388.38;;;-0.83;100.00
59767;BME280;46248;58.364;25.582;2023-04-01T03:39:33;99397.78;;;-0.82;100.00
59767;BME280;46248;58.364;25.582;2023-04-01T03:42:55;99390.13;;;-0.85;100.00
59767;BME280;46248;58.364;25.582;2023-04-01T03:46:18;99399.44;;;-0.80;100.00
59767;BME280;46248;58.364;25.582;2023-04-01T03:49:40;99394.38;;;-0.83;100.00
59767;BME280;46248;58.364;25.582;2023-04-01T03:53:03;99397.78;;;-0.82;100.00
59767;BME280;46248;58.364;25.582;2023-04-01T03:56:25;99397.91;;;-0.87;100.00
59767;BME280;46248;58.364;25.582;2023-04-01T03:59:47;99387.75;;;-0.93;100.00
59767;BME280;46248;58.364;25.582;2023-04-01T04:03:09;99397.00;;;-0.86;100.00
59767;BME280;46248;58.364;25.582;2023-04-01T04:06:30;99413.28;;;-0.85;100.00
59767;BME280;46248;58.364;25.582;2023-04-01T04:09:53;99400.50;;;-0.88;100.00
59767;BME280;46248;58.364;25.582;2023-04-01T04:13:15;99398.69;;;-0.85;100.00
59767;BME280;46248;58.364;25.582;2023-04-01T04:16:37;99383.47;;;-0.94;100.00
59767;BME280;46248;58.364;25.582;2023-04-01T04:19:59;99390.47;;;-0.99;100.00
59767;BME280;46248;58.364;25.582;2023-04-01T04:23:21;99391.09;;;-0.89;100.00
59767;BME280;46248;58.364;25.582;2023-04-01T04:26:44;99397.28;;;-0.97;100.00
59767;BME280;46248;58.364;25.582;2023-04-01T04:30:07;99403.91;;;-0.88;100.00
59767;BME280;46248;58.364;25.582;2023-04-01T04:33:29;99403.97;;;-0.91;100.00
59767;BME280;46248;58.364;25.582;2023-04-01T04:36:51;99411.59;;;-0.88;100.00
59767;BME280;46248;58.364;25.582;2023-04-01T04:40:13;99419.31;;;-0.88;100.00
59767;BME280;46248;58.364;25.582;2023-04-01T04:43:37;99424.50;;;-0.89;100.00
59767;BME280;46248;58.364;25.582;2023-04-01T04:46:59;99416.81;;;-0.91;100.00
59767;BME280;46248;58.364;25.582;2023-04-01T04:50:21;99412.63;;;-0.94;100.00
59767;BME280;46248;58.364;25.582;2023-04-01T04:53:43;99424.66;;;-0.97;100.00
59767;BME280;46248;58.364;25.582;2023-04-01T04:57:05;99431.44;;;-0.93;100.00
59767;BME280;46248;58.364;25.582;2023-04-01T05:00:29;99432.28;;;-0.93;100.00
59767;BME280;46248;58.364;25.582;2023-04-01T05:03:51;99438.31;;;-0.94;100.00
59767;BME280;46248;58.364;25.582;2023-04-01T05:07:13;99435.75;;;-0.94;100.00
59767;BME280;46248;58.364;25.582;2023-04-01T05:10:35;99423.16;;;-1.06;100.00
59767;BME280;46248;58.364;25.582;2023-04-01T05:13:58;99444.31;;;-0.95;100.00
59767;BME280;46248;58.364;25.582;2023-04-01T05:17:21;99453.69;;;-0.92;100.00
59767;BME280;46248;58.364;25.582;2023-04-01T05:20:46;99449.50;;;-0.98;100.00
59767;BME280;46248;58.364;25.582;2023-04-01T05:24:09;99449.44;;;-0.95;100.00
59767;BME280;46248;58.364;25.582;2023-04-01T05:27:31;99453.81;;;-0.98;100.00
59767;BME280;46248;58.364;25.582;2023-04-01T05:30:53;99452.84;;;-0.94;100.00
59767;BME280;46248;58.364;25.582;2023-04-01T05:34:17;99467.38;;;-0.92;100.00
59767;BME280;46248;58.364;25.582;2023-04-01T05:37:38;99461.31;;;-0.87;100.00
59767;BME280;46248;58.364;25.582;2023-04-01T05:41:02;99461.31;;;-0.87;100.00
59767;BME280;46248;58.364;25.582;2023-04-01T05:44:24;99462.78;;;-0.77;100.00
59767;BME280;46248;58.364;25.582;2023-04-01T05:47:46;99461.84;;;-0.73;100.00
59767;BME280;46248;58.364;25.582;2023-04-01T05:51:13;99476.31;;;-0.69;100.00
59767;BME280;46248;58.364;25.582;2023-04-01T05:54:35;99476.28;;;-0.67;100.00
59767;BME280;46248;58.364;25.582;2023-04-01T05:57:58;99453.19;;;-0.69;100.00
59767;BME280;46248;58.364;25.582;2023-04-01T06:01:20;99474.59;;;-0.68;100.00
59767;BME280;46248;58.364;25.582;2023-04-01T06:04:42;99474.41;;;-0.61;100.00
59767;BME280;46248;58.364;25.582;2023-04-01T06:08:10;99472.56;;;-0.54;100.00
59767;BME280;46248;58.364;25.582;2023-04-01T06:11:39;99476.69;;;-0.49;100.00
59767;BME280;46248;58.364;25.582;2023-04-01T06:15:18;99473.19;;;-0.44;100.00
59767;BME280;46248;58.364;25.582;2023-04-01T06:18:58;99476.53;;;-0.41;100.00
59767;BME280;46248;58.364;25.582;2023-04-01T06:22:48;99491.88;;;-0.36;100.00
59767;BME280;46248;58.364;25.582;2023-04-01T06:26:21;99499.53;;;-0.33;100.00
59767;BME280;46248;58.364;25.582;2023-04-01T06:30:02;99488.56;;;-0.43;99.30
59767;BME280;46248;58.364;25.582;2023-04-01T06:33:37;99491.97;;;-0.41;99.90
59767;BME280;46248;58.364;25.582;2023-04-01T06:37:16;99487.50;;;-0.33;100.00
59767;BME280;46248;58.364;25.582;2023-04-01T06:41:00;99484.88;;;-0.31;99.62
59767;BME280;46248;58.364;25.582;2023-04-01T06:44:37;99495.88;;;-0.25;99.88
59767;BME280;46248;58.364;25.582;2023-04-01T06:48:22;99500.72;;;-0.12;97.63
59767;BME280;46248;58.364;25.582;2023-04-01T06:51:51;99492.72;;;0.00;98.01
59767;BME280;46248;58.364;25.582;2023-04-01T06:55:26;99503.72;;;0.07;97.77
59767;BME280;46248;58.364;25.582;2023-04-01T06:58:52;99501.84;;;0.12;95.95
59767;BME280;46248;58.364;25.582;2023-04-01T07:02:22;99494.63;;;0.26;97.24
59767;BME280;46248;58.364;25.582;2023-04-01T07:05:46;99501.53;;;0.24;95.65
59767;BME280;46248;58.364;25.582;2023-04-01T07:09:12;99505.91;;;0.22;95.60
59767;BME280;46248;58.364;25.582;2023-04-01T07:12:42;99499.91;;;0.21;95.00
59767;BME280;46248;58.364;25.582;2023-04-01T07:16:08;99513.00;;;0.12;95.01
59767;BME280;46248;58.364;25.582;2023-04-01T07:19:41;99508.88;;;0.05;95.71
59767;BME280;46248;58.364;25.582;2023-04-01T07:23:07;99508.41;;;-0.11;96.75
59767;BME280;46248;58.364;25.582;2023-04-01T07:26:32;99515.38;;;-0.14;96.85
59767;BME280;46248;58.364;25.582;2023-04-01T07:29:56;99510.84;;;-0.05;97.49
59767;BME280;46248;58.364;25.582;2023-04-01T07:33:22;99524.31;;;0.05;96.46
59767;BME280;46248;58.364;25.582;2023-04-01T07:36:54;99521.72;;;0.07;97.14
59767;BME280;46248;58.364;25.582;2023-04-01T07:40:30;99532.56;;;0.19;96.71
59767;BME280;46248;58.364;25.582;2023-04-01T07:43:58;99530.88;;;0.18;97.03
59767;BME280;46248;58.364;25.582;2023-04-01T07:47:43;99538.69;;;0.14;95.79
59767;BME280;46248;58.364;25.582;2023-04-01T07:51:12;99521.69;;;0.08;97.06
59767;BME280;46248;58.364;25.582;2023-04-01T07:54:44;99544.91;;;0.07;97.06
59767;BME280;46248;58.364;25.582;2023-04-01T07:58:14;99538.97;;;0.03;97.55
59767;BME280;46248;58.364;25.582;2023-04-01T08:01:45;99556.84;;;0.09;97.04
59767;BME280;46248;58.364;25.582;2023-04-01T08:05:21;99542.34;;;0.05;96.02
59767;BME280;46248;58.364;25.582;2023-04-01T08:08:55;99554.50;;;0.00;96.85
59767;BME280;46248;58.364;25.582;2023-04-01T08:12:28;99556.72;;;0.14;98.97
59767;BME280;46248;58.364;25.582;2023-04-01T08:15:57;99564.53;;;0.11;97.04
59767;BME280;46248;58.364;25.582;2023-04-01T08:19:43;99566.19;;;0.12;98.11
59767;BME280;46248;58.364;25.582;2023-04-01T08:23:14;99560.91;;;0.18;96.76
59767;BME280;46248;58.364;25.582;2023-04-01T08:26:40;99574.50;;;0.25;96.52
59767;BME280;46248;58.364;25.582;2023-04-01T08:30:18;99553.91;;;0.25;95.76
59767;BME280;46248;58.364;25.582;2023-04-01T08:33:41;99576.09;;;0.29;95.81
59767;BME280;46248;58.364;25.582;2023-04-01T08:37:07;99564.97;;;0.27;95.69
59767;BME280;46248;58.364;25.582;2023-04-01T08:41:01;99575.13;;;0.33;95.67
59767;BME280;46248;58.364;25.582;2023-04-01T08:45:03;99590.03;;;0.21;95.15
59767;BME280;46248;58.364;25.582;2023-04-01T08:48:46;99587.16;;;0.32;95.99
59767;BME280;46248;58.364;25.582;2023-04-01T08:52:22;99590.41;;;0.40;96.72
59767;BME280;46248;58.364;25.582;2023-04-01T08:56:00;99594.16;;;0.27;95.25
59767;BME280;46248;58.364;25.582;2023-04-01T08:59:36;99601.66;;;0.36;96.25
59767;BME280;46248;58.364;25.582;2023-04-01T09:03:19;99600.81;;;0.36;96.57
59767;BME280;46248;58.364;25.582;2023-04-01T09:06:55;99609.44;;;0.33;96.45
59767;BME280;46248;58.364;25.582;2023-04-01T09:10:33;99613.00;;;0.29;96.07
59767;BME280;46248;58.364;25.582;2023-04-01T09:14:11;99619.81;;;0.32;95.89
59767;BME280;46248;58.364;25.582;2023-04-01T09:22:03;99631.94;;;0.27;96.48
59767;BME280;46248;58.364;25.582;2023-04-01T09:25:41;99624.28;;;0.23;96.16
59767;BME280;46248;58.364;25.582;2023-04-01T09:29:20;99624.41;;;0.19;96.37
59767;BME280;46248;58.364;25.582;2023-04-01T09:33:15;99651.81;;;0.21;95.61
59767;BME280;46248;58.364;25.582;2023-04-01T09:36:44;99641.38;;;0.26;96.09
59767;BME280;46248;58.364;25.582;2023-04-01T09:40:17;99651.75;;;0.23;95.90
59767;BME280;46248;58.364;25.582;2023-04-01T09:43:53;99657.72;;;0.25;96.91
59767;BME280;46248;58.364;25.582;2023-04-01T09:47:28;99663.88;;;0.18;94.70
59767;BME280;46248;58.364;25.582;2023-04-01T09:51:02;99654.44;;;0.18;95.81
59767;BME280;46248;58.364;25.582;2023-04-01T09:54:40;99644.22;;;0.15;95.43
59767;BME280;46248;58.364;25.582;2023-04-01T09:58:26;99678.59;;;0.13;95.94
59767;BME280;46248;58.364;25.582;2023-04-01T10:02:11;99659.75;;;0.12;95.81
59767;BME280;46248;58.364;25.582;2023-04-01T10:06:09;99664.81;;;0.15;96.26
59767;BME280;46248;58.364;25.582;2023-04-01T10:13:57;99671.72;;;0.12;95.33
59767;BME280;46248;58.364;25.582;2023-04-01T10:17:53;99682.78;;;0.18;95.49
59767;BME280;46248;58.364;25.582;2023-04-01T10:21:30;99680.00;;;0.26;96.77
59767;BME280;46248;58.364;25.582;2023-04-01T10:29:12;99698.72;;;0.34;95.13
59767;BME280;46248;58.364;25.582;2023-04-01T10:36:52;99697.13;;;0.29;96.12
59767;BME280;46248;58.364;25.582;2023-04-01T10:40:38;99708.19;;;0.32;95.82
59767;BME280;46248;58.364;25.582;2023-04-01T10:53:10;99721.63;;;0.45;95.06
59767;BME280;46248;58.364;25.582;2023-04-01T10:56:46;99709.78;;;0.38;96.06
59767;BME280;46248;58.364;25.582;2023-04-01T11:00:52;99719.25;;;0.37;96.01
59767;BME280;46248;58.364;25.582;2023-04-01T11:04:58;99720.16;;;0.33;95.08
59767;BME280;46248;58.364;25.582;2023-04-01T11:08:56;99728.78;;;0.32;95.95
59767;BME280;46248;58.364;25.582;2023-04-01T11:16:47;99742.56;;;0.30;95.50
59767;BME280;46248;58.364;25.582;2023-04-01T11:20:31;99744.31;;;0.29;95.85
59767;BME280;46248;58.364;25.582;2023-04-01T11:24:21;99739.22;;;0.26;96.25
59767;BME280;46248;58.364;25.582;2023-04-01T11:28:20;99756.28;;;0.30;95.33
59767;BME280;46248;58.364;25.582;2023-04-01T11:31:57;99748.41;;;0.38;95.96
59767;BME280;46248;58.364;25.582;2023-04-01T11:39:22;99764.56;;;0.46;96.28
59767;BME280;46248;58.364;25.582;2023-04-01T11:42:49;99761.94;;;0.48;96.05
59767;BME280;46248;58.364;25.582;2023-04-01T11:46:19;99760.19;;;0.48;96.00
59767;BME280;46248;58.364;25.582;2023-04-01T11:49:55;99761.13;;;0.45;97.40
59767;BME280;46248;58.364;25.582;2023-04-01T11:53:26;99765.41;;;0.47;97.29
59767;BME280;46248;58.364;25.582;2023-04-01T11:57:03;99766.81;;;0.60;96.34
59767;BME280;46248;58.364;25.582;2023-04-01T12:04:42;99768.25;;;0.73;95.25
59767;BME280;46248;58.364;25.582;2023-04-01T12:08:24;99769.22;;;0.67;95.38
59767;BME280;46248;58.364;25.582;2023-04-01T12:12:00;99775.59;;;0.51;95.03
59767;BME280;46248;58.364;25.582;2023-04-01T12:15:35;99780.72;;;0.51;95.47
59767;BME280;46248;58.364;25.582;2023-04-01T12:19:10;99785.88;;;0.53;95.67
59767;BME280;46248;58.364;25.582;2023-04-01T12:22:43;99784.97;;;0.54;94.84
59767;BME280;46248;58.364;25.582;2023-04-01T12:26:19;99789.19;;;0.58;96.02
59767;BME280;46248;58.364;25.582;2023-04-01T12:33:56;99799.44;;;0.61;95.63
59767;BME280;46248;58.364;25.582;2023-04-01T12:37:28;99802.81;;;0.63;96.13
59767;BME280;46248;58.364;25.582;2023-04-01T12:41:16;99789.78;;;0.69;97.59
59767;BME280;46248;58.364;25.582;2023-04-01T12:45:01;99808.28;;;0.86;96.41
59767;BME280;46248;58.364;25.582;2023-04-01T12:48:57;99811.16;;;0.74;94.90
59767;BME280;46248;58.364;25.582;2023-04-01T12:52:31;99812.19;;;0.67;96.15
59767;BME280;46248;58.364;25.582;2023-04-01T12:55:59;99811.34;;;0.65;96.73
59767;BME280;46248;58.364;25.582;2023-04-01T12:59:38;99810.50;;;0.64;94.24
59767;BME280;46248;58.364;25.582;2023-04-01T13:03:30;99826.00;;;0.63;94.97
59767;BME280;46248;58.364;25.582;2023-04-01T13:07:10;99827.94;;;0.53;96.01
59767;BME280;46248;58.364;25.582;2023-04-01T13:10:45;99832.09;;;0.59;96.65
59767;BME280;46248;58.364;25.582;2023-04-01T13:14:24;99843.16;;;0.64;96.10
59767;BME280;46248;58.364;25.582;2023-04-01T13:18:00;99853.59;;;0.58;95.05
59767;BME280;46248;58.364;25.582;2023-04-01T13:21:33;99855.31;;;0.57;95.35
59767;BME280;46248;58.364;25.582;2023-04-01T13:25:02;99858.78;;;0.56;95.06
59767;BME280;46248;58.364;25.582;2023-04-01T13:28:30;99869.13;;;0.53;93.97
59767;BME280;46248;58.364;25.582;2023-04-01T13:32:01;99877.03;;;0.45;95.58
59767;BME280;46248;58.364;25.582;2023-04-01T13:35:36;99881.19;;;0.51;96.15
59767;BME280;46248;58.364;25.582;2023-04-01T13:39:07;99884.59;;;0.53;96.09
59767;BME280;46248;58.364;25.582;2023-04-01T13:42:41;99894.06;;;0.53;95.12
59767;BME280;46248;58.364;25.582;2023-04-01T13:50:30;99899.38;;;0.43;95.78
59767;BME280;46248;58.364;25.582;2023-04-01T13:54:21;99896.84;;;0.42;96.11
59767;BME280;46248;58.364;25.582;2023-04-01T13:57:56;99907.13;;;0.42;96.07
59767;BME280;46248;58.364;25.582;2023-04-01T14:01:32;99902.09;;;0.37;96.11
59767;BME280;46248;58.364;25.582;2023-04-01T14:05:12;99908.97;;;0.37;94.65
59767;BME280;46248;58.364;25.582;2023-04-01T14:09:10;99906.41;;;0.35;95.41
59767;BME280;46248;58.364;25.582;2023-04-01T14:12:41;99910.59;;;0.42;95.76
59767;BME280;46248;58.364;25.582;2023-04-01T14:16:27;99905.44;;;0.41;94.98
59767;BME280;46248;58.364;25.582;2023-04-01T14:20:10;99913.22;;;0.38;95.68
59767;BME280;46248;58.364;25.582;2023-04-01T14:27:44;99921.72;;;0.43;96.83
59767;BME280;46248;58.364;25.582;2023-04-01T14:31:23;99929.41;;;0.46;96.20
59767;BME280;46248;58.364;25.582;2023-04-01T14:34:55;99917.31;;;0.50;97.62
59767;BME280;46248;58.364;25.582;2023-04-01T14:38:28;99937.06;;;0.48;96.21
59767;BME280;46248;58.364;25.582;2023-04-01T14:42:06;99953.50;;;0.42;96.87
59767;BME280;46248;58.364;25.582;2023-04-01T14:46:12;99957.00;;;0.38;94.96
59767;BME280;46248;58.364;25.582;2023-04-01T14:49:39;99940.06;;;0.26;95.57
59767;BME280;46248;58.364;25.582;2023-04-01T14:53:12;99952.03;;;0.29;95.94
59767;BME280;46248;58.364;25.582;2023-04-01T14:56:40;99966.47;;;0.37;96.43
59767;BME280;46248;58.364;25.582;2023-04-01T15:00:13;99936.75;;;0.19;96.67
59767;BME280;46248;58.364;25.582;2023-04-01T15:03:40;99961.38;;;0.34;96.56
59767;BME280;46248;58.364;25.582;2023-04-01T15:07:35;99979.25;;;0.42;96.91
59767;BME280;46248;58.364;25.582;2023-04-01T15:11:23;99987.06;;;0.37;95.57
59767;BME280;46248;58.364;25.582;2023-04-01T15:15:04;99982.88;;;0.32;95.08
59767;BME280;46248;58.364;25.582;2023-04-01T15:18:40;99991.50;;;0.31;94.57
59767;BME280;46248;58.364;25.582;2023-04-01T15:22:32;99996.59;;;0.32;94.93
59767;BME280;46248;58.364;25.582;2023-04-01T15:26:25;100000.03;;;0.33;93.79
59767;BME280;46248;58.364;25.582;2023-04-01T15:30:07;100007.72;;;0.34;93.77
59767;BME280;46248;58.364;25.582;2023-04-01T15:33:46;100011.16;;;0.33;94.04
59767;BME280;46248;58.364;25.582;2023-04-01T15:37:16;100023.25;;;0.31;94.00
59767;BME280;46248;58.364;25.582;2023-04-01T15:40:47;100021.56;;;0.29;93.89
59767;BME280;46248;58.364;25.582;2023-04-01T15:44:42;100025.78;;;0.33;92.17
59767;BME280;46248;58.364;25.582;2023-04-01T15:48:19;100024.97;;;0.29;92.81
59767;BME280;46248;58.364;25.582;2023-04-01T15:52:06;100037.91;;;0.28;90.93
59767;BME280;46248;58.364;25.582;2023-04-01T15:55:37;100026.81;;;0.21;90.46
59767;BME280;46248;58.364;25.582;2023-04-01T15:59:11;100042.16;;;0.29;90.56
59767;BME280;46248;58.364;25.582;2023-04-01T16:02:44;100028.59;;;0.19;90.30
59767;BME280;46248;58.364;25.582;2023-04-01T16:06:21;100048.31;;;0.20;87.53
59767;BME280;46248;58.364;25.582;2023-04-01T16:09:56;100056.09;;;0.17;87.99
59767;BME280;46248;58.364;25.582;2023-04-01T16:13:28;100066.44;;;0.14;87.18
59767;BME280;46248;58.364;25.582;2023-04-01T16:17:08;100064.84;;;0.07;86.39
59767;BME280;46248;58.364;25.582;2023-04-01T16:20:44;100067.47;;;0.04;85.32
59767;BME280;46248;58.364;25.582;2023-04-01T16:24:20;100091.47;;;0.03;84.07
59767;BME280;46248;58.364;25.582;2023-04-01T16:27:51;100088.09;;;0.01;86.34
59767;BME280;46248;58.364;25.582;2023-04-01T16:31:27;100102.75;;;-0.05;83.81
59767;BME280;46248;58.364;25.582;2023-04-01T16:35:00;100098.47;;;-0.06;84.79
59767;BME280;46248;58.364;25.582;2023-04-01T16:38:33;100107.94;;;-0.08;83.55
59767;BME280;46248;58.364;25.582;2023-04-01T16:42:13;100114.81;;;-0.10;82.84
59767;BME280;46248;58.364;25.582;2023-04-01T16:45:42;100117.44;;;-0.13;82.60
59767;BME280;46248;58.364;25.582;2023-04-01T16:53:02;100115.84;;;-0.21;79.49
59767;BME280;46248;58.364;25.582;2023-04-01T16:56:38;100128.72;;;-0.21;79.80
59767;BME280;46248;58.364;25.582;2023-04-01T17:00:12;100134.78;;;-0.26;78.43
59767;BME280;46248;58.364;25.582;2023-04-01T17:03:40;100127.09;;;-0.29;78.99
59767;BME280;46248;58.364;25.582;2023-04-01T17:07:20;100148.44;;;-0.22;80.25
59767;BME280;46248;58.364;25.582;2023-04-01T17:10:51;100160.53;;;-0.27;77.57
59767;BME280;46248;58.364;25.582;2023-04-01T17:14:24;100162.28;;;-0.29;79.11
59767;BME280;46248;58.364;25.582;2023-04-01T17:17:55;100136.66;;;-0.38;77.45
59767;BME280;46248;58.364;25.582;2023-04-01T17:21:38;100165.75;;;-0.35;77.60
59767;BME280;46248;58.364;25.582;2023-04-01T17:25:23;100165.00;;;-0.41;78.02
59767;BME280;46248;58.364;25.582;2023-04-01T17:28:49;100182.09;;;-0.36;79.32
59767;BME280;46248;58.364;25.582;2023-04-01T17:32:18;100191.56;;;-0.41;77.40
59767;BME280;46248;58.364;25.582;2023-04-01T17:35:43;100190.72;;;-0.41;77.60
59767;BME280;46248;58.364;25.582;2023-04-01T17:39:22;100201.91;;;-0.47;77.82
59767;BME280;46248;58.364;25.582;2023-04-01T17:42:50;100202.81;;;-0.50;79.82
59767;BME280;46248;58.364;25.582;2023-04-01T17:46:29;100201.09;;;-0.51;80.10
59767;BME280;46248;58.364;25.582;2023-04-01T17:49:58;100211.47;;;-0.58;78.95
59767;BME280;46248;58.364;25.582;2023-04-01T17:53:35;100220.09;;;-0.64;79.87
59767;BME280;46248;58.364;25.582;2023-04-01T18:00:57;100222.00;;;-0.81;79.68
59767;BME280;46248;58.364;25.582;2023-04-01T18:04:37;100225.38;;;-0.79;78.09
59767;BME280;46248;58.364;25.582;2023-04-01T18:08:12;100247.72;;;-0.81;78.54
59767;BME280;46248;58.364;25.582;2023-04-01T18:11:42;100241.75;;;-0.86;79.05
59767;BME280;46248;58.364;25.582;2023-04-01T18:15:15;100259.75;;;-0.91;77.94
59767;BME280;46248;58.364;25.582;2023-04-01T18:18:50;100241.88;;;-1.03;79.15
59767;BME280;46248;58.364;25.582;2023-04-01T18:22:19;100254.72;;;-1.02;80.62
59767;BME280;46248;58.364;25.582;2023-04-01T18:25:45;100265.00;;;-1.03;77.62
59767;BME280;46248;58.364;25.582;2023-04-01T18:29:15;100247.16;;;-1.17;77.70
59767;BME280;46248;58.364;25.582;2023-04-01T18:32:47;100263.34;;;-1.10;79.21
59767;BME280;46248;58.364;25.582;2023-04-01T18:36:16;100277.88;;;-1.06;79.31
59767;BME280;46248;58.364;25.582;2023-04-01T18:39:42;100271.97;;;-1.14;78.60
59767;BME280;46248;58.364;25.582;2023-04-01T18:43:18;100289.06;;;-1.15;78.74
59767;BME280;46248;58.364;25.582;2023-04-01T18:46:49;100297.63;;;-1.13;78.48
59767;BME280;46248;58.364;25.582;2023-04-01T18:50:22;100262.66;;;-1.32;78.83
59767;BME280;46248;58.364;25.582;2023-04-01T18:53:48;100295.94;;;-1.14;79.66
59767;BME280;46248;58.364;25.582;2023-04-01T18:57:16;100290.03;;;-1.27;78.87
59767;BME280;46248;58.364;25.582;2023-04-01T19:00:42;100302.00;;;-1.23;78.18
59767;BME280;46248;58.364;25.582;2023-04-01T19:04:12;100312.25;;;-1.23;78.46
59767;BME280;46248;58.364;25.582;2023-04-01T19:07:47;100318.25;;;-1.22;78.70
59767;BME280;46248;58.364;25.582;2023-04-01T19:11:16;100324.25;;;-1.20;79.91
59767;BME280;46248;58.364;25.582;2023-04-01T19:14:56;100326.81;;;-1.22;77.83
59767;BME280;46248;58.364;25.582;2023-04-01T19:18:30;100322.50;;;-1.17;79.14
59767;BME280;46248;58.364;25.582;2023-04-01T19:21:57;100326.78;;;-1.17;78.06